Página principal
METAR-TAF:

METAR-TAF

Aeroportos :

La Gomera, Espanha

latitude: 28-01-47N, longitude: 017-12-53W, altura: 218 m

Observação actual do tempo

O boletim foi feito há 29 minutos, às 22:00 UTC
Vento 4 kt de oes-noroeste, variando entre oeste e norte
Temperatura 17°C
Humidade 55%
Pressão 1023 hPa
Visibilidade 10 km ou mais

METAR: GCGM 172200Z AUTO 30004KT 260V350 9999 NCD 17/08 Q1023 RMK R09/28004KT ARP/29005KT

Hora: 22:29 (22:29 UTC)

Previsão

O boletim foi feito há 2 horas e 29 minutos, às 20:00 UTC
Previsão válida de 17 às 21 UTC a 18 às 21 UTC
Vento 5 kt de norte
Visibilidade 10 km ou mais
Poucas nuvensa uma altura de 3000 ft
Tornando-se
de 18 às 09 UTC a 18 às 11 UTC
Vento 18 kt com direcção variável com rajadas de 30 kt

TAF: GCGM 172000Z 1721/1821 01005KT 9999 FEW030 TX20/1814Z TN14/1806Z BECMG 1809/1811 VRB18G30KT

Observações e previsões do tempo de mais de 4000 aeroportos (mensagens METAR e TAF).

As estações disponíveis são os pontos amarelos e vermelhos sobre o mapa.

Mova o rato sobre o mapa para ver o nome da estação.

Depois clique no ponto para visualizar as observações e previsões meteorológicas.

Para alterar o mapa : clique nos botões verdes com uma cruz preta para aumentar o zoom; no botão verde com uma pitada de zoom; ou nas setas verdes para mapas adjacentes.


METAR-TAF: